Aérodrome :
LOGIN :

S'inscrire | Disclaimer

   EN    FR    IT 

 










Légende :    VFR   VFR Marginal   IFR   IFR Intensif   IFR Très Intensif
Visi : 
Plafond : 
>= 8 km
>= 3000ft
5 à 8 km
1000 à 3000 ft
1500m à 5 km
500 à 1000 ft
800 à 1500m
200 à 500 ft
< 800m
< 200 ft
Symboles :   Orages  Brouillard  Fortes neiges  Fortes précipitations  Vent > 20 kt
SIGMETs :   Divers  Orages  Givrage  Turbulence  Onde Orograph.  Cendres Volcan.







- Altitude de l'aérodrome : 13 ft
- Code IATA : CEQ
- Voir les cartes d'approche


LFMD - Cannes Mandelieu

DERNIER METAR :
  • 221600Z AUTO VRB02KT CAVOK 14/09 Q1018 NOSIG

METARs EXPIRÉS :
  • 221530Z AUTO 17003KT 140V210 CAVOK 15/09 Q1018 NOSIG
  • 221500Z AUTO VRB03KT 9999 SCT044 15/09 Q1019 NOSIG
  • 221430Z AUTO 19004KT 9999 OVC044 16/10 Q1019 NOSIG
  • 221400Z AUTO 18004KT 9999 OVC043 16/10 Q1019 NOSIG
  • 221330Z AUTO 18004KT 9999 BKN042 16/10 Q1019 NOSIG

TAF TAF LFMD
Valide du 22 à 15h jusqu'au 23 à 15h UTC


221400Z 2215/2315 16006KT 9999 SCT040
BECMG 2216/2218 36006KT CAVOK
TEMPO 2221/2310 BKN030
BECMG 2310/2312 18008KT FEW030
ATIS : +33 4 93 48 73 23
Pas de NOTAMs connus pour ce terrain.



MET'MAP, la Météo Aéronautique d'un coup d'oeil ! - Copyright ORBIFLY Décembre 2007 - Disclaimer

ORBIFLY MET'MAP TEAM :

Programmation & Développement : Alexandra Zaïnal
Conception & Développement : Baudouin d'Aumeries
Co-Programmation & Développement : Marc-Olivier Méhu
Soutien technique & logistique : Manuel Goepfert

Contact : metmap@orbifly.com




SOURCES & CREDITS :

   NOAA